Time;durP1;ratioP1;P1;durP2;ratioP2;P2;SDS_P1;SDS_P2;PMS_P1;PMS_P2;Temp;Humidity;BMP_temperature;BMP_pressure;BME280_temperature;BME280_humidity;BME280_pressure;Samples;Min_cycle;Max_cycle;Signal;HPM_P1;HPM_P2
2022/07/25 00:00:44;;;;;;;11.80;10.18;;;20.70;75.50;;;;;;2104393;28;20142;-76
2022/07/25 00:01:45;;;;;;;11.38;10.27;;;20.60;75.20;;;;;;2104701;28;20027;-74
2022/07/25 00:02:46;;;;;;;11.10;9.95;;;20.60;74.90;;;;;;2103837;28;20028;-75
2022/07/25 00:03:46;;;;;;;12.13;10.82;;;20.60;75.50;;;;;;2095962;28;20025;-74
2022/07/25 00:04:47;;;;;;;12.32;10.15;;;20.60;74.60;;;;;;2104609;28;20097;-74
2022/07/25 00:05:48;;;;;;;10.68;9.57;;;20.60;74.70;;;;;;2104874;28;20024;-74
2022/07/25 00:06:49;;;;;;;11.20;10.00;;;20.60;74.80;;;;;;2105092;28;20725;-74
2022/07/25 00:07:49;;;;;;;11.15;9.98;;;20.60;74.80;;;;;;2105041;28;20055;-75
2022/07/25 00:08:50;;;;;;;10.95;9.85;;;20.60;74.70;;;;;;2104924;28;20119;-76
2022/07/25 00:09:51;;;;;;;11.88;10.27;;;20.60;74.70;;;;;;2104764;28;20032;-74
2022/07/25 00:10:51;;;;;;;11.88;10.60;;;20.50;74.70;;;;;;2104968;28;20053;-74
2022/07/25 00:11:52;;;;;;;13.10;10.73;;;20.50;74.70;;;;;;2105095;28;20039;-74
2022/07/25 00:12:53;;;;;;;11.85;10.57;;;20.50;74.80;;;;;;2105755;28;20059;-73
2022/07/25 00:13:53;;;;;;;13.38;11.15;;;20.50;74.90;;;;;;2107164;28;20040;-73
2022/07/25 00:14:54;;;;;;;12.93;11.00;;;20.50;75.30;;;;;;2106349;28;20024;-73
2022/07/25 00:15:55;;;;;;;13.55;11.30;;;20.50;75.30;;;;;;2098318;28;20086;-73
2022/07/25 00:16:55;;;;;;;13.07;11.25;;;20.50;75.40;;;;;;2106150;28;20028;-73
2022/07/25 00:17:56;;;;;;;13.50;10.80;;;20.50;75.50;;;;;;2105668;28;20495;-73
2022/07/25 00:18:56;;;;;;;15.27;12.38;;;20.50;75.60;;;;;;2104990;28;20530;-73
2022/07/25 00:19:57;;;;;;;15.57;12.82;;;20.50;75.80;;;;;;2105302;28;20032;-73
2022/07/25 00:20:58;;;;;;;14.82;13.13;;;20.40;76.10;;;;;;2096107;28;20063;-73
2022/07/25 00:21:58;;;;;;;17.45;15.40;;;20.40;76.40;;;;;;2095944;28;20114;-71
2022/07/25 00:22:59;;;;;;;20.20;17.10;;;20.40;76.70;;;;;;2104486;28;20814;-74
2022/07/25 00:24:00;;;;;;;22.25;18.52;;;20.40;77.10;;;;;;2104696;28;20117;-73
2022/07/25 00:25:04;;;;;;;25.17;19.02;;;20.40;77.30;;;;;;2105665;28;20031;-73
2022/07/25 00:26:08;;;;;;;24.83;20.05;;;20.30;77.50;;;;;;2105079;28;20265;-73
2022/07/25 00:27:12;;;;;;;23.17;19.60;;;20.30;77.70;;;;;;2105502;28;20039;-73
2022/07/25 00:28:12;;;;;;;22.20;19.33;;;20.30;77.80;;;;;;2105162;28;20055;-73
2022/07/25 00:29:13;;;;;;;26.02;22.58;;;20.30;78.00;;;;;;2104914;28;20090;-73
2022/07/25 00:30:14;;;;;;;27.00;23.33;;;20.30;78.20;;;;;;2105126;28;20060;-73
2022/07/25 00:31:14;;;;;;;28.02;24.00;;;20.30;78.40;;;;;;2104554;28;20028;-73
2022/07/25 00:32:15;;;;;;;30.08;24.60;;;20.30;78.60;;;;;;2105057;28;20081;-73
2022/07/25 00:33:16;;;;;;;28.30;24.35;;;20.30;78.60;;;;;;2104507;28;20036;-74
2022/07/25 00:34:17;;;;;;;30.50;25.55;;;20.30;78.80;;;;;;2105161;28;20031;-73
2022/07/25 00:35:18;;;;;;;33.90;27.00;;;20.30;78.90;;;;;;2105316;28;20027;-74
2022/07/25 00:36:19;;;;;;;34.65;27.83;;;20.30;79.00;;;;;;2104398;28;20024;-74
2022/07/25 00:37:19;;;;;;;36.13;29.98;;;20.20;79.00;;;;;;2104699;28;20093;-73
2022/07/25 00:38:20;;;;;;;37.47;31.15;;;20.20;79.10;;;;;;2104544;28;20024;-73
2022/07/25 00:39:21;;;;;;;37.60;31.77;;;20.20;79.20;;;;;;2104578;28;20042;-73
2022/07/25 00:40:22;;;;;;;41.63;33.72;;;20.20;79.20;;;;;;2104993;28;20028;-73
2022/07/25 00:41:23;;;;;;;41.58;35.08;;;20.20;79.20;;;;;;2104702;28;20055;-74
2022/07/25 00:42:23;;;;;;;40.33;33.17;;;20.20;79.10;;;;;;2098394;28;20025;-74
2022/07/25 00:43:24;;;;;;;37.72;32.05;;;20.20;79.10;;;;;;2098614;28;20083;-73
2022/07/25 00:44:28;;;;;;;38.15;31.50;;;20.20;79.20;;;;;;2107038;28;20020;-73
2022/07/25 00:45:29;;;;;;;40.08;31.70;;;20.20;79.00;;;;;;2107523;28;20107;-73
2022/07/25 00:46:30;;;;;;;36.30;32.30;;;20.10;78.80;;;;;;2107774;28;20078;-73
2022/07/25 00:47:31;;;;;;;42.88;35.15;;;20.10;78.70;;;;;;2107396;28;20509;-74
2022/07/25 00:48:32;;;;;;;41.33;35.30;;;20.10;78.70;;;;;;2107016;28;20502;-74
2022/07/25 00:49:33;;;;;;;42.47;35.17;;;20.10;78.40;;;;;;2107446;28;20035;-74
2022/07/25 00:50:35;;;;;;;43.03;36.03;;;20.10;78.40;;;;;;2107454;28;20071;-74
2022/07/25 00:51:36;;;;;;;46.95;39.20;;;20.10;78.40;;;;;;2107545;28;20025;-74
2022/07/25 00:52:39;;;;;;;46.45;38.47;;;20.10;78.40;;;;;;2107505;28;20671;-74
2022/07/25 00:53:44;;;;;;;46.63;37.97;;;20.10;78.50;;;;;;2099164;28;20051;-74
2022/07/25 00:54:45;;;;;;;44.60;36.33;;;20.00;78.50;;;;;;2106974;28;20028;-74
2022/07/25 00:55:47;;;;;;;40.63;32.97;;;20.00;78.40;;;;;;2106337;28;20455;-74
2022/07/25 00:56:49;;;;;;;37.00;31.52;;;20.00;78.40;;;;;;2107698;28;20536;-73
2022/07/25 00:57:50;;;;;;;33.75;29.45;;;20.00;78.30;;;;;;2107136;28;20421;-74
2022/07/25 00:58:51;;;;;;;32.30;28.13;;;20.00;78.30;;;;;;2106921;28;20020;-74
2022/07/25 00:59:51;;;;;;;31.20;26.95;;;20.00;78.20;;;;;;2107001;28;20059;-75
2022/07/25 01:00:52;;;;;;;29.70;25.35;;;20.00;78.20;;;;;;2107089;28;20103;-74
2022/07/25 01:01:53;;;;;;;29.20;24.88;;;20.00;78.20;;;;;;2107029;28;20028;-74
2022/07/25 01:02:54;;;;;;;28.77;25.10;;;20.00;78.30;;;;;;2107068;28;20435;-74
2022/07/25 01:03:55;;;;;;;29.17;25.10;;;19.90;78.30;;;;;;2107147;28;20093;-74
2022/07/25 01:04:57;;;;;;;27.20;23.67;;;19.90;78.40;;;;;;2107171;28;20023;-74
2022/07/25 01:05:58;;;;;;;29.15;24.38;;;19.90;78.40;;;;;;2107115;28;20024;-74
2022/07/25 01:06:59;;;;;;;29.38;24.63;;;19.90;78.70;;;;;;2106860;28;20067;-74
2022/07/25 01:08:01;;;;;;;28.95;23.83;;;19.90;78.80;;;;;;2107222;28;20020;-74
2022/07/25 01:09:02;;;;;;;28.98;23.67;;;19.90;79.60;;;;;;2107186;28;20115;-74
2022/07/25 01:10:05;;;;;;;28.63;24.02;;;19.90;78.80;;;;;;2106724;28;20036;-73
2022/07/25 01:11:06;;;;;;;27.10;23.20;;;19.80;78.90;;;;;;2107331;28;20028;-73
2022/07/25 01:12:07;;;;;;;27.58;23.48;;;19.90;79.00;;;;;;2107295;28;20039;-73
2022/07/25 01:13:12;;;;;;;27.98;24.40;;;19.80;78.90;;;;;;2097570;28;20074;-73
2022/07/25 01:14:13;;;;;;;30.10;24.23;;;19.80;79.00;;;;;;2098590;28;20031;-73
2022/07/25 01:15:15;;;;;;;32.13;24.92;;;19.80;79.10;;;;;;2106180;28;20020;-73
2022/07/25 01:16:16;;;;;;;31.05;26.25;;;19.80;79.10;;;;;;2105578;28;20123;-73
2022/07/25 01:17:17;;;;;;;34.28;29.10;;;19.80;79.20;;;;;;2097597;28;20040;-73
2022/07/25 01:18:18;;;;;;;34.92;30.02;;;19.80;79.20;;;;;;2105752;28;20024;-74
2022/07/25 01:19:18;;;;;;;41.45;31.23;;;19.80;79.40;;;;;;2106299;28;20051;-73
2022/07/25 01:20:21;;;;;;;35.45;30.33;;;19.80;79.40;;;;;;2106042;28;20024;-74
2022/07/25 01:21:23;;;;;;;35.00;29.52;;;19.70;79.40;;;;;;2105419;28;20028;-72
2022/07/25 01:22:23;;;;;;;34.63;28.70;;;19.70;79.40;;;;;;2105319;28;20173;-72
2022/07/25 01:23:24;;;;;;;33.83;29.48;;;19.70;79.40;;;;;;2105919;28;20061;-73
2022/07/25 01:24:25;;;;;;;35.72;30.13;;;19.70;79.40;;;;;;2106092;28;20024;-73
2022/07/25 01:25:26;;;;;;;35.42;30.65;;;19.70;79.50;;;;;;2105824;28;20108;-72
2022/07/25 01:26:27;;;;;;;34.70;30.35;;;19.70;79.70;;;;;;2106167;28;20016;-72
2022/07/25 01:27:28;;;;;;;35.28;29.58;;;19.70;79.80;;;;;;2106390;28;20075;-73
2022/07/25 01:28:28;;;;;;;38.55;33.00;;;19.70;79.80;;;;;;2106081;28;20051;-73
2022/07/25 01:29:29;;;;;;;38.30;32.30;;;19.70;79.80;;;;;;2105935;28;20040;-73
2022/07/25 01:30:30;;;;;;;38.55;31.95;;;19.70;79.90;;;;;;2106211;28;20024;-75
2022/07/25 01:31:30;;;;;;;35.67;31.17;;;19.60;79.90;;;;;;2105310;28;20016;-73
2022/07/25 01:32:31;;;;;;;36.33;29.90;;;19.70;80.10;;;;;;2105371;28;20024;-73
2022/07/25 01:33:32;;;;;;;34.88;28.90;;;19.70;80.00;;;;;;2105586;28;20028;-73
2022/07/25 01:34:32;;;;;;;32.85;28.10;;;19.60;80.00;;;;;;2105660;28;20024;-73
2022/07/25 01:35:33;;;;;;;32.28;27.88;;;19.60;80.20;;;;;;2106162;28;20504;-73
2022/07/25 01:36:34;;;;;;;34.72;29.73;;;19.60;80.30;;;;;;2106075;28;20050;-73
2022/07/25 01:37:35;;;;;;;38.25;31.20;;;19.60;80.40;;;;;;2106204;28;20489;-73
2022/07/25 01:38:36;;;;;;;37.88;33.22;;;19.60;80.60;;;;;;2106093;28;20153;-73
2022/07/25 01:39:36;;;;;;;39.58;34.15;;;19.60;80.60;;;;;;2106296;28;20028;-73
2022/07/25 01:40:37;;;;;;;43.95;34.72;;;19.50;80.70;;;;;;2105949;28;20024;-73
2022/07/25 01:41:38;;;;;;;43.72;36.63;;;19.50;81.50;;;;;;2105855;28;20036;-73
2022/07/25 01:42:39;;;;;;;45.35;38.17;;;19.50;80.80;;;;;;2105596;28;20117;-73
2022/07/25 01:43:39;;;;;;;47.17;38.75;;;19.50;81.00;;;;;;2105810;28;20063;-73
2022/07/25 01:44:40;;;;;;;49.53;40.92;;;19.50;81.10;;;;;;2105832;28;20367;-73
2022/07/25 01:45:41;;;;;;;46.80;40.03;;;19.50;81.20;;;;;;2106000;28;20028;-73
2022/07/25 01:46:41;;;;;;;47.28;39.75;;;19.50;81.20;;;;;;2105809;28;20052;-73
2022/07/25 01:47:42;;;;;;;48.78;40.10;;;19.50;81.30;;;;;;2105617;28;20028;-73
2022/07/25 01:48:43;;;;;;;48.47;39.65;;;19.50;81.40;;;;;;2104769;28;20036;-73
2022/07/25 01:49:43;;;;;;;47.22;39.30;;;19.50;81.50;;;;;;2105182;28;20032;-73
2022/07/25 01:50:44;;;;;;;46.15;38.80;;;19.50;81.50;;;;;;2105649;28;20032;-73
2022/07/25 01:51:45;;;;;;;50.25;38.47;;;19.50;81.60;;;;;;2105841;28;20121;-73
2022/07/25 01:52:45;;;;;;;45.25;37.20;;;19.40;81.50;;;;;;2105385;28;20036;-72
2022/07/25 01:53:46;;;;;;;42.63;35.90;;;19.50;81.60;;;;;;2105854;28;20466;-73
2022/07/25 01:54:47;;;;;;;38.95;34.33;;;19.40;81.40;;;;;;2105818;28;20054;-72
2022/07/25 01:55:48;;;;;;;40.15;33.90;;;19.40;81.40;;;;;;2105155;28;20024;-73
2022/07/25 01:56:48;;;;;;;39.10;33.70;;;19.40;81.40;;;;;;2105009;28;20540;-73
2022/07/25 01:57:49;;;;;;;40.28;33.72;;;19.50;81.50;;;;;;2105742;28;20024;-73
2022/07/25 01:58:50;;;;;;;40.53;34.55;;;19.40;81.50;;;;;;2104771;28;20919;-73
2022/07/25 01:59:50;;;;;;;39.28;32.78;;;19.40;81.50;;;;;;2096619;28;20604;-73
2022/07/25 02:00:51;;;;;;;39.95;32.92;;;19.40;81.70;;;;;;2105020;28;20047;-73
2022/07/25 02:01:53;;;;;;;40.47;32.85;;;19.40;81.80;;;;;;2105636;28;20023;-72
2022/07/25 02:03:28;;;;;;;40.88;33.38;;;19.40;82.00;;;;;;2105418;28;20034;-73
2022/07/25 02:04:14;;;;;;;40.28;32.17;;;19.40;82.10;;;;;;2105440;28;20577;-73
2022/07/25 02:05:15;;;;;;;40.88;33.92;;;19.30;82.20;;;;;;2105357;28;20024;-72
2022/07/25 02:06:17;;;;;;;40.25;34.00;;;19.30;82.30;;;;;;2105471;28;20109;-73
2022/07/25 02:07:18;;;;;;;42.33;34.15;;;19.30;82.50;;;;;;2105648;28;20024;-73
2022/07/25 02:08:18;;;;;;;41.90;35.47;;;19.30;82.50;;;;;;2105324;28;20107;-73
2022/07/25 02:09:19;;;;;;;41.47;35.22;;;19.30;82.60;;;;;;2105675;28;20035;-72
2022/07/25 02:10:20;;;;;;;43.67;35.60;;;19.30;82.70;;;;;;2105462;28;20032;-73
2022/07/25 02:11:20;;;;;;;47.08;39.38;;;19.30;82.90;;;;;;2105664;28;20036;-73
2022/07/25 02:12:21;;;;;;;49.30;41.47;;;19.30;83.00;;;;;;2105449;28;20068;-73
2022/07/25 02:13:22;;;;;;;52.75;43.47;;;19.30;83.00;;;;;;2105228;28;20028;-73
2022/07/25 02:14:23;;;;;;;52.60;44.42;;;19.30;83.10;;;;;;2105391;28;20031;-72
2022/07/25 02:15:24;;;;;;;55.08;45.92;;;19.30;83.20;;;;;;2105522;28;20028;-73
2022/07/25 02:16:24;;;;;;;63.45;50.90;;;19.30;83.20;;;;;;2104651;28;20023;-73
2022/07/25 02:17:26;;;;;;;62.80;51.30;;;19.30;83.40;;;;;;2104903;28;20604;-73
2022/07/25 02:18:26;;;;;;;63.25;50.53;;;19.30;83.50;;;;;;2105510;28;20020;-73
2022/07/25 02:19:27;;;;;;;57.70;47.92;;;19.30;83.30;;;;;;2105281;28;20255;-73
2022/07/25 02:20:28;;;;;;;58.45;47.10;;;19.30;83.30;;;;;;2104799;28;20085;-73
2022/07/25 02:21:28;;;;;;;55.97;46.70;;;19.30;83.30;;;;;;2104773;28;20417;-73
2022/07/25 02:22:29;;;;;;;57.10;46.80;;;19.30;83.30;;;;;;2104861;28;20058;-73
2022/07/25 02:23:30;;;;;;;53.70;44.92;;;19.20;83.30;;;;;;2104705;28;20051;-73
2022/07/25 02:24:31;;;;;;;53.55;44.13;;;19.20;83.30;;;;;;2104855;28;20568;-73
2022/07/25 02:25:32;;;;;;;48.55;42.38;;;19.20;83.30;;;;;;2105367;28;20474;-75
2022/07/25 02:26:33;;;;;;;50.53;41.72;;;19.20;83.40;;;;;;2105437;28;20035;-73
2022/07/25 02:27:34;;;;;;;47.63;40.97;;;19.20;83.40;;;;;;2105520;28;20051;-73
2022/07/25 02:28:34;;;;;;;49.30;42.33;;;19.20;83.50;;;;;;2105342;28;20397;-73
2022/07/25 02:29:35;;;;;;;48.90;40.00;;;19.20;83.50;;;;;;2105342;28;20016;-73
2022/07/25 02:30:36;;;;;;;49.03;40.97;;;19.20;83.50;;;;;;2105431;28;20039;-73
2022/07/25 02:31:37;;;;;;;45.22;39.45;;;19.10;83.60;;;;;;2105323;28;20533;-73
2022/07/25 02:32:38;;;;;;;47.17;39.97;;;19.10;83.70;;;;;;2105229;28;20028;-73
2022/07/25 02:33:41;;;;;;;50.92;41.05;;;19.10;83.90;;;;;;2105461;28;20648;-74
2022/07/25 02:34:42;;;;;;;51.05;41.28;;;19.10;83.90;;;;;;2105424;28;20049;-73
2022/07/25 02:35:43;;;;;;;48.90;42.22;;;19.10;83.90;;;;;;2105400;28;20027;-74
2022/07/25 02:36:44;;;;;;;52.53;42.92;;;19.10;84.10;;;;;;2105378;28;20077;-74
2022/07/25 02:37:45;;;;;;;55.65;44.72;;;19.00;84.20;;;;;;2105146;28;20068;-74
2022/07/25 02:38:46;;;;;;;55.90;45.83;;;19.10;84.30;;;;;;2105236;28;20039;-74
2022/07/25 02:39:47;;;;;;;55.63;46.63;;;19.10;84.40;;;;;;2104708;28;20020;-75
2022/07/25 02:40:49;;;;;;;59.80;48.15;;;19.10;84.50;;;;;;2104762;28;20032;-73
2022/07/25 02:41:50;;;;;;;56.15;46.20;;;19.00;84.50;;;;;;2104599;28;20028;-74
2022/07/25 02:42:50;;;;;;;58.58;47.58;;;19.00;84.60;;;;;;2096260;28;20845;-74
2022/07/25 02:43:51;;;;;;;56.28;46.72;;;19.10;84.70;;;;;;2104598;28;20064;-73
2022/07/25 02:44:52;;;;;;;56.85;47.40;;;19.00;84.80;;;;;;2105377;28;20024;-73
2022/07/25 02:45:52;;;;;;;56.08;46.65;;;19.00;84.90;;;;;;2105370;28;20051;-73
2022/07/25 02:46:53;;;;;;;55.65;45.45;;;19.00;84.80;;;;;;2105441;28;20032;-73
2022/07/25 02:47:54;;;;;;;52.95;44.65;;;19.00;84.90;;;;;;2105383;28;20031;-73
2022/07/25 02:48:54;;;;;;;55.40;45.72;;;19.00;85.00;;;;;;2105605;28;20032;-74
2022/07/25 02:49:55;;;;;;;55.17;46.60;;;19.00;85.00;;;;;;2105348;28;20070;-74
2022/07/25 02:50:56;;;;;;;58.70;46.95;;;19.00;85.00;;;;;;2105238;28;20107;-73
2022/07/25 02:51:56;;;;;;;57.53;46.90;;;19.00;85.20;;;;;;2105327;28;20751;-74
2022/07/25 02:52:57;;;;;;;60.17;48.45;;;19.00;85.30;;;;;;2105231;28;20486;-73
2022/07/25 02:53:58;;;;;;;55.13;47.05;;;19.00;85.50;;;;;;2105294;28;20648;-73
2022/07/25 02:54:58;;;;;;;59.45;48.38;;;19.00;85.90;;;;;;2104647;28;20020;-73
2022/07/25 02:55:59;;;;;;;58.10;48.78;;;18.90;85.40;;;;;;2104961;28;20464;-74
2022/07/25 02:56:59;;;;;;;58.35;48.25;;;18.90;85.60;;;;;;2105479;28;20405;-73
2022/07/25 02:58:00;;;;;;;56.75;46.90;;;18.90;85.70;;;;;;2105345;28;20028;-73
2022/07/25 02:59:01;;;;;;;57.28;49.25;;;18.90;85.70;;;;;;2104961;28;20119;-73
2022/07/25 03:00:03;;;;;;;58.65;49.83;;;18.90;85.60;;;;;;2105325;28;20028;-73
2022/07/25 03:01:04;;;;;;;61.33;51.25;;;18.90;85.70;;;;;;2105247;28;20497;-73
2022/07/25 03:02:05;;;;;;;58.78;49.75;;;18.90;85.70;;;;;;2105182;28;20024;-72
2022/07/25 03:03:06;;;;;;;58.67;49.67;;;18.90;85.90;;;;;;2104308;28;20024;-72
2022/07/25 03:04:06;;;;;;;64.88;51.55;;;18.90;86.00;;;;;;2095527;28;20029;-73
2022/07/25 03:05:13;;;;;;;60.13;50.58;;;18.80;86.10;;;;;;2104409;28;20027;-74
2022/07/25 03:06:14;;;;;;;62.83;52.05;;;18.80;86.20;;;;;;2105042;28;20645;-72
2022/07/25 03:07:14;;;;;;;64.28;51.25;;;18.80;86.30;;;;;;2105022;28;20039;-72
2022/07/25 03:08:15;;;;;;;64.20;52.92;;;18.80;86.40;;;;;;2104939;28;20032;-73
2022/07/25 03:09:15;;;;;;;62.60;51.95;;;18.80;86.50;;;;;;2105130;28;20095;-72
2022/07/25 03:10:16;;;;;;;61.00;50.97;;;18.80;86.70;;;;;;2105081;28;20452;-72
2022/07/25 03:11:17;;;;;;;60.25;51.63;;;18.80;86.70;;;;;;2105004;28;20027;-73
2022/07/25 03:12:18;;;;;;;62.05;52.45;;;18.80;86.70;;;;;;2105409;28;20147;-73
2022/07/25 03:13:18;;;;;;;64.97;52.25;;;18.80;86.70;;;;;;2104867;28;20031;-73
2022/07/25 03:14:19;;;;;;;60.97;51.85;;;18.80;86.80;;;;;;2105176;28;20036;-73
2022/07/25 03:15:20;;;;;;;63.67;52.72;;;18.80;87.00;;;;;;2105319;28;20108;-74
2022/07/25 03:16:20;;;;;;;62.42;52.90;;;18.80;87.10;;;;;;2104948;28;20028;-73
2022/07/25 03:17:21;;;;;;;68.82;55.47;;;18.80;87.10;;;;;;2104714;28;20077;-72
2022/07/25 03:18:22;;;;;;;68.75;54.13;;;18.70;87.10;;;;;;2104801;28;20513;-72
2022/07/25 03:19:22;;;;;;;68.05;54.22;;;18.70;87.20;;;;;;2104224;28;20036;-72
2022/07/25 03:20:23;;;;;;;64.80;54.28;;;18.80;87.50;;;;;;2104214;28;20027;-72
2022/07/25 03:21:24;;;;;;;67.43;55.50;;;18.80;87.50;;;;;;2104941;28;20036;-72
2022/07/25 03:22:25;;;;;;;67.47;55.05;;;18.80;87.60;;;;;;2105047;28;20024;-72
2022/07/25 03:23:27;;;;;;;68.53;55.38;;;18.80;87.70;;;;;;2104600;28;20025;-73
2022/07/25 03:24:27;;;;;;;69.05;56.35;;;18.70;87.80;;;;;;2104829;28;20024;-72
2022/07/25 03:25:28;;;;;;;68.30;55.58;;;18.70;88.00;;;;;;2105022;28;20019;-72
2022/07/25 03:26:29;;;;;;;69.00;56.22;;;18.70;88.10;;;;;;2105066;28;20030;-72
2022/07/25 03:27:30;;;;;;;66.95;56.33;;;18.80;88.30;;;;;;2105099;28;20077;-72
2022/07/25 03:28:31;;;;;;;69.72;57.05;;;18.70;88.20;;;;;;2104760;28;20032;-72
2022/07/25 03:29:32;;;;;;;70.53;56.50;;;18.70;88.40;;;;;;2105127;28;20016;-72
2022/07/25 03:30:32;;;;;;;70.95;57.45;;;18.70;88.50;;;;;;2104284;28;20573;-72
2022/07/25 03:31:33;;;;;;;66.32;55.28;;;18.80;88.60;;;;;;2104285;28;20459;-72
2022/07/25 03:32:34;;;;;;;67.90;56.33;;;18.70;88.60;;;;;;2104605;28;20036;-73
2022/07/25 03:33:34;;;;;;;70.85;57.58;;;18.70;88.60;;;;;;2104965;28;20039;-72
2022/07/25 03:34:35;;;;;;;71.60;58.33;;;18.80;88.70;;;;;;2104888;28;20043;-72
2022/07/25 03:35:36;;;;;;;71.75;57.78;;;18.80;88.70;;;;;;2105074;28;20070;-73
2022/07/25 03:36:37;;;;;;;71.78;59.28;;;18.80;88.80;;;;;;2104828;28;20047;-73
2022/07/25 03:37:38;;;;;;;71.45;58.40;;;18.80;88.80;;;;;;2104782;28;20395;-73
2022/07/25 03:38:38;;;;;;;73.25;59.13;;;18.80;88.70;;;;;;2104145;28;20458;-72
2022/07/25 03:39:39;;;;;;;69.45;58.22;;;18.80;88.80;;;;;;2104171;28;20028;-73
2022/07/25 03:40:40;;;;;;;67.57;56.70;;;18.80;88.80;;;;;;2104960;28;20060;-73
2022/07/25 03:41:41;;;;;;;73.75;58.97;;;18.80;88.70;;;;;;2104849;28;20051;-73
2022/07/25 03:42:41;;;;;;;71.90;58.70;;;18.90;88.80;;;;;;2103808;28;20788;-73
2022/07/25 03:43:42;;;;;;;72.45;58.28;;;18.90;88.90;;;;;;2104203;28;20032;-73
2022/07/25 03:44:42;;;;;;;70.70;58.05;;;18.90;88.90;;;;;;2104661;28;20032;-73
2022/07/25 03:45:43;;;;;;;70.18;57.88;;;18.90;88.90;;;;;;2104735;28;20403;-73
2022/07/25 03:46:44;;;;;;;69.78;57.70;;;18.90;88.90;;;;;;2105078;28;20124;-73
2022/07/25 03:47:44;;;;;;;71.15;57.17;;;18.90;88.90;;;;;;2104966;28;20032;-72
2022/07/25 03:48:45;;;;;;;71.43;58.13;;;18.90;89.10;;;;;;2104923;28;20062;-73
2022/07/25 03:49:46;;;;;;;69.50;58.50;;;18.90;88.90;;;;;;2104918;28;20088;-73
2022/07/25 03:50:46;;;;;;;71.30;57.97;;;19.00;89.00;;;;;;2104681;28;20024;-73
2022/07/25 03:51:47;;;;;;;71.70;58.92;;;19.00;88.90;;;;;;2104995;28;20024;-73
2022/07/25 03:52:48;;;;;;;74.40;58.45;;;19.00;89.00;;;;;;2104553;28;20094;-73
2022/07/25 03:54:00;;;;;;;69.25;58.55;;;19.00;89.10;;;;;;2104894;28;20032;-73
2022/07/25 03:55:01;;;;;;;70.75;57.53;;;19.00;89.20;;;;;;2104336;28;20028;-73
2022/07/25 03:56:02;;;;;;;70.90;58.45;;;19.00;89.10;;;;;;2104484;28;20486;-73
2022/07/25 03:57:04;;;;;;;71.40;58.22;;;19.00;89.10;;;;;;2104824;28;20119;-72
2022/07/25 03:58:05;;;;;;;71.03;58.55;;;19.00;89.20;;;;;;2104598;28;20028;-73
2022/07/25 03:59:07;;;;;;;71.35;58.33;;;19.10;89.20;;;;;;2104778;28;20043;-73
2022/07/25 04:00:09;;;;;;;79.40;59.47;;;19.10;89.10;;;;;;2104730;28;20558;-73
2022/07/25 04:01:09;;;;;;;72.85;58.60;;;19.10;89.10;;;;;;2104901;28;20031;-73
2022/07/25 04:02:10;;;;;;;73.88;59.13;;;19.10;89.10;;;;;;2104125;28;20090;-73
2022/07/25 04:03:11;;;;;;;72.60;59.55;;;19.10;89.20;;;;;;2095517;28;20486;-73
2022/07/25 04:04:12;;;;;;;72.43;60.08;;;19.10;89.30;;;;;;2104334;28;20063;-73
2022/07/25 04:05:12;;;;;;;74.25;59.97;;;19.20;89.30;;;;;;2104124;28;20386;-73
2022/07/25 04:06:13;;;;;;;70.57;59.45;;;19.20;89.30;;;;;;2104501;28;20016;-73
2022/07/25 04:07:14;;;;;;;75.10;59.28;;;19.20;89.30;;;;;;2104740;28;20020;-73
2022/07/25 04:08:14;;;;;;;74.82;61.10;;;19.20;89.40;;;;;;2105034;28;20588;-73
2022/07/25 04:09:15;;;;;;;75.18;60.38;;;19.20;89.40;;;;;;2105019;28;20032;-73
2022/07/25 04:10:16;;;;;;;73.30;60.80;;;19.30;89.40;;;;;;2104287;28;20109;-73
2022/07/25 04:11:17;;;;;;;76.22;61.55;;;19.30;89.30;;;;;;2104142;28;20043;-73
2022/07/25 04:12:17;;;;;;;74.57;61.55;;;19.30;89.30;;;;;;2104976;28;20040;-73
2022/07/25 04:13:18;;;;;;;79.53;64.78;;;19.30;89.30;;;;;;2104476;28;20048;-73
2022/07/25 04:14:19;;;;;;;78.00;62.95;;;19.30;89.30;;;;;;2104966;28;20073;-73
2022/07/25 04:15:19;;;;;;;77.50;63.10;;;19.30;89.40;;;;;;2105332;28;20508;-75
2022/07/25 04:16:20;;;;;;;74.80;62.30;;;19.30;89.40;;;;;;2106283;28;20081;-73
2022/07/25 04:17:21;;;;;;;76.28;62.28;;;19.40;89.20;;;;;;2106578;28;20020;-73
2022/07/25 04:18:21;;;;;;;77.43;63.67;;;19.50;89.10;;;;;;2106209;28;20765;-73
2022/07/25 04:19:22;;;;;;;75.75;62.63;;;19.60;89.00;;;;;;2106177;28;20031;-73
2022/07/25 04:20:23;;;;;;;86.18;68.35;;;19.70;88.60;;;;;;2106208;28;20032;-75
2022/07/25 04:21:24;;;;;;;83.38;69.88;;;19.80;88.10;;;;;;2106539;28;20017;-73
2022/07/25 04:22:25;;;;;;;81.72;66.90;;;20.10;87.60;;;;;;2106586;28;20035;-73
2022/07/25 04:23:27;;;;;;;80.07;65.65;;;20.30;86.90;;;;;;2106207;28;20054;-74
2022/07/25 04:24:28;;;;;;;80.38;65.50;;;20.60;85.90;;;;;;2106389;28;20036;-73
2022/07/25 04:25:29;;;;;;;81.13;65.20;;;21.00;84.60;;;;;;2106540;28;20052;-73
2022/07/25 04:26:30;;;;;;;78.00;63.70;;;21.30;83.30;;;;;;2106463;28;20085;-73
2022/07/25 04:27:31;;;;;;;74.82;63.30;;;21.50;82.10;;;;;;2106302;28;20020;-73
2022/07/25 04:28:31;;;;;;;77.90;63.58;;;21.70;81.00;;;;;;2106234;28;20020;-73
2022/07/25 04:29:32;;;;;;;74.78;62.65;;;21.80;80.50;;;;;;2106497;28;20489;-73
2022/07/25 04:30:32;;;;;;;77.68;63.75;;;21.90;80.10;;;;;;2106118;28;20184;-73
2022/07/25 04:31:33;;;;;;;77.70;63.42;;;22.10;79.60;;;;;;2106461;28;20036;-72
2022/07/25 04:32:34;;;;;;;78.35;63.75;;;22.20;79.10;;;;;;2106019;28;20024;-73
2022/07/25 04:33:39;;;;;;;74.68;62.15;;;22.40;78.40;;;;;;2106235;28;20871;-73
2022/07/25 04:34:39;;;;;;;75.28;63.53;;;22.70;77.70;;;;;;2106035;28;20032;-73
2022/07/25 04:35:40;;;;;;;70.72;60.85;;;22.90;76.80;;;;;;2106311;28;20024;-73
2022/07/25 04:36:41;;;;;;;73.45;61.53;;;23.10;76.00;;;;;;2105564;28;20107;-73
2022/07/25 04:37:41;;;;;;;75.05;61.70;;;23.40;75.00;;;;;;2106700;28;20024;-73
2022/07/25 04:38:42;;;;;;;75.75;61.35;;;23.60;73.90;;;;;;2107405;28;20031;-73
2022/07/25 04:39:43;;;;;;;71.72;58.70;;;23.90;73.30;;;;;;2106591;28;20061;-73
2022/07/25 04:40:44;;;;;;;68.68;58.72;;;24.20;72.40;;;;;;2106184;28;20117;-73
2022/07/25 04:41:44;;;;;;;68.22;58.25;;;24.40;71.30;;;;;;2106320;28;20436;-74
2022/07/25 04:42:45;;;;;;;73.57;59.97;;;24.60;70.30;;;;;;2109194;28;20028;-73
2022/07/25 04:43:46;;;;;;;65.13;57.88;;;24.70;69.60;;;;;;2100437;28;20021;-73
2022/07/25 04:44:46;;;;;;;70.32;58.45;;;24.80;68.90;;;;;;2100476;28;20090;-74
2022/07/25 04:45:47;;;;;;;72.47;57.53;;;24.80;68.70;;;;;;2111833;28;20039;-73
2022/07/25 04:46:48;;;;;;;69.57;58.13;;;24.90;68.60;;;;;;2109978;28;20070;-73
2022/07/25 04:47:49;;;;;;;67.40;57.95;;;24.80;68.20;;;;;;2109751;28;20043;-74
2022/07/25 04:48:50;;;;;;;67.55;57.95;;;24.90;68.30;;;;;;2109853;28;20036;-75
2022/07/25 04:49:51;;;;;;;69.82;58.78;;;24.90;68.00;;;;;;2108452;28;20081;-74
2022/07/25 04:50:52;;;;;;;67.47;59.28;;;25.10;67.70;;;;;;2106254;28;20531;-74
2022/07/25 04:51:52;;;;;;;70.95;58.65;;;25.30;67.30;;;;;;2106773;28;20039;-74
2022/07/25 04:52:53;;;;;;;67.93;57.67;;;25.40;66.70;;;;;;2106622;28;20036;-74
2022/07/25 04:53:53;;;;;;;72.13;58.72;;;25.60;66.10;;;;;;2105728;28;20036;-74
2022/07/25 04:54:54;;;;;;;71.63;59.13;;;25.70;65.50;;;;;;2105489;28;20108;-74
2022/07/25 04:55:55;;;;;;;70.15;59.97;;;25.90;64.80;;;;;;2106437;28;20046;-74
2022/07/25 04:56:55;;;;;;;68.95;58.75;;;26.00;64.20;;;;;;2106205;28;20056;-74
2022/07/25 04:57:56;;;;;;;72.03;59.53;;;26.10;63.90;;;;;;2105626;28;20038;-74
2022/07/25 04:58:57;;;;;;;68.22;57.95;;;26.30;63.70;;;;;;2105609;28;20024;-74
2022/07/25 04:59:58;;;;;;;68.15;58.53;;;26.30;63.10;;;;;;2106114;28;20036;-74
2022/07/25 05:00:58;;;;;;;68.35;58.40;;;26.30;62.90;;;;;;2106417;28;20024;-74
2022/07/25 05:02:00;;;;;;;71.00;60.13;;;26.40;62.60;;;;;;2105407;28;20516;-74
2022/07/25 05:03:01;;;;;;;71.35;60.17;;;26.40;62.40;;;;;;2105135;28;20032;-73
2022/07/25 05:04:01;;;;;;;73.00;59.55;;;26.40;62.20;;;;;;2106064;28;20103;-73
2022/07/25 05:05:03;;;;;;;73.75;60.08;;;26.40;62.10;;;;;;2106161;28;20785;-74
2022/07/25 05:06:04;;;;;;;71.88;60.03;;;26.40;61.90;;;;;;2106295;28;20523;-73
2022/07/25 05:07:05;;;;;;;72.50;59.70;;;26.30;61.80;;;;;;2105795;28;20030;-73
2022/07/25 05:08:05;;;;;;;80.28;64.45;;;26.30;62.60;;;;;;2097360;28;20028;-73
2022/07/25 05:09:06;;;;;;;73.63;60.67;;;26.20;61.80;;;;;;2097131;28;20517;-73
2022/07/25 05:10:07;;;;;;;78.50;64.35;;;26.10;62.10;;;;;;2105782;28;20547;-73